sensor_id;sensor_type;location;lat;lon;timestamp;temperature;humidity
21734;DHT22;11029;47.820;10.534;2023-04-01T00:01:15;5.20;79.00
21734;DHT22;11029;47.820;10.534;2023-04-01T00:03:43;5.30;77.70
21734;DHT22;11029;47.820;10.534;2023-04-01T00:06:16;5.30;76.50
21734;DHT22;11029;47.820;10.534;2023-04-01T00:08:43;5.40;76.70
21734;DHT22;11029;47.820;10.534;2023-04-01T00:11:10;5.40;76.50
21734;DHT22;11029;47.820;10.534;2023-04-01T00:13:37;5.40;77.00
21734;DHT22;11029;47.820;10.534;2023-04-01T00:16:04;5.40;75.80
21734;DHT22;11029;47.820;10.534;2023-04-01T00:18:45;5.50;76.10
21734;DHT22;11029;47.820;10.534;2023-04-01T00:21:13;5.50;75.50
21734;DHT22;11029;47.820;10.534;2023-04-01T00:23:41;5.50;76.00
21734;DHT22;11029;47.820;10.534;2023-04-01T00:26:08;5.50;75.50
21734;DHT22;11029;47.820;10.534;2023-04-01T00:28:35;5.60;75.20
21734;DHT22;11029;47.820;10.534;2023-04-01T00:31:07;5.60;75.60
21734;DHT22;11029;47.820;10.534;2023-04-01T00:33:34;5.60;75.30
21734;DHT22;11029;47.820;10.534;2023-04-01T00:36:13;5.60;75.50
21734;DHT22;11029;47.820;10.534;2023-04-01T00:38:40;5.50;76.40
21734;DHT22;11029;47.820;10.534;2023-04-01T00:41:09;5.50;76.30
21734;DHT22;11029;47.820;10.534;2023-04-01T00:43:42;5.60;75.30
21734;DHT22;11029;47.820;10.534;2023-04-01T00:46:09;5.50;75.40
21734;DHT22;11029;47.820;10.534;2023-04-01T00:48:39;5.60;76.20
21734;DHT22;11029;47.820;10.534;2023-04-01T00:51:20;5.50;77.00
21734;DHT22;11029;47.820;10.534;2023-04-01T00:53:50;5.40;77.20
21734;DHT22;11029;47.820;10.534;2023-04-01T00:56:21;5.30;77.60
21734;DHT22;11029;47.820;10.534;2023-04-01T00:58:58;5.40;77.60
21734;DHT22;11029;47.820;10.534;2023-04-01T01:01:25;5.40;77.40
21734;DHT22;11029;47.820;10.534;2023-04-01T01:03:52;5.30;77.40
21734;DHT22;11029;47.820;10.534;2023-04-01T01:06:23;5.30;77.80
21734;DHT22;11029;47.820;10.534;2023-04-01T01:11:43;5.20;78.00
21734;DHT22;11029;47.820;10.534;2023-04-01T01:26:03;4.90;80.30
21734;DHT22;11029;47.820;10.534;2023-04-01T01:28:47;4.80;80.60
21734;DHT22;11029;47.820;10.534;2023-04-01T01:31:32;4.80;80.50
21734;DHT22;11029;47.820;10.534;2023-04-01T01:37:06;4.80;80.70
21734;DHT22;11029;47.820;10.534;2023-04-01T01:39:36;4.80;80.60
21734;DHT22;11029;47.820;10.534;2023-04-01T01:42:06;4.80;80.40
21734;DHT22;11029;47.820;10.534;2023-04-01T01:44:35;4.80;80.80
21734;DHT22;11029;47.820;10.534;2023-04-01T01:47:02;4.80;80.80
21734;DHT22;11029;47.820;10.534;2023-04-01T01:49:31;4.70;81.40
21734;DHT22;11029;47.820;10.534;2023-04-01T01:51:58;4.70;82.10
21734;DHT22;11029;47.820;10.534;2023-04-01T01:54:25;4.70;81.90
21734;DHT22;11029;47.820;10.534;2023-04-01T01:57:06;4.60;82.70
21734;DHT22;11029;47.820;10.534;2023-04-01T01:59:36;4.50;82.50
21734;DHT22;11029;47.820;10.534;2023-04-01T02:02:04;4.50;82.40
21734;DHT22;11029;47.820;10.534;2023-04-01T02:04:40;4.40;82.90
21734;DHT22;11029;47.820;10.534;2023-04-01T02:07:12;4.30;83.40
21734;DHT22;11029;47.820;10.534;2023-04-01T02:09:40;4.20;82.40
21734;DHT22;11029;47.820;10.534;2023-04-01T02:12:11;4.20;84.00
21734;DHT22;11029;47.820;10.534;2023-04-01T02:14:53;4.10;84.60
21734;DHT22;11029;47.820;10.534;2023-04-01T02:17:26;4.10;84.60
21734;DHT22;11029;47.820;10.534;2023-04-01T02:20:00;4.10;84.70
21734;DHT22;11029;47.820;10.534;2023-04-01T02:22:36;4.20;85.50
21734;DHT22;11029;47.820;10.534;2023-04-01T02:25:12;4.20;85.60
21734;DHT22;11029;47.820;10.534;2023-04-01T02:27:41;4.10;85.70
21734;DHT22;11029;47.820;10.534;2023-04-01T02:30:09;4.20;85.50
21734;DHT22;11029;47.820;10.534;2023-04-01T02:32:38;4.20;85.60
21734;DHT22;11029;47.820;10.534;2023-04-01T02:35:10;4.20;85.60
21734;DHT22;11029;47.820;10.534;2023-04-01T02:37:38;4.20;85.80
21734;DHT22;11029;47.820;10.534;2023-04-01T02:40:08;4.30;85.50
21734;DHT22;11029;47.820;10.534;2023-04-01T02:42:36;4.40;86.00
21734;DHT22;11029;47.820;10.534;2023-04-01T02:45:04;4.30;85.90
21734;DHT22;11029;47.820;10.534;2023-04-01T02:47:31;4.30;85.70
21734;DHT22;11029;47.820;10.534;2023-04-01T02:49:58;4.40;85.20
21734;DHT22;11029;47.820;10.534;2023-04-01T02:52:26;4.40;85.30
21734;DHT22;11029;47.820;10.534;2023-04-01T02:54:54;4.40;85.10
21734;DHT22;11029;47.820;10.534;2023-04-01T02:57:21;4.40;85.10
21734;DHT22;11029;47.820;10.534;2023-04-01T02:59:48;4.40;85.10
21734;DHT22;11029;47.820;10.534;2023-04-01T03:02:15;4.50;84.90
21734;DHT22;11029;47.820;10.534;2023-04-01T03:04:42;4.50;84.20
21734;DHT22;11029;47.820;10.534;2023-04-01T03:07:09;4.50;84.70
21734;DHT22;11029;47.820;10.534;2023-04-01T03:09:37;4.50;84.10
21734;DHT22;11029;47.820;10.534;2023-04-01T03:12:05;4.50;84.50
21734;DHT22;11029;47.820;10.534;2023-04-01T03:14:40;4.60;83.30
21734;DHT22;11029;47.820;10.534;2023-04-01T03:17:07;4.50;83.40
21734;DHT22;11029;47.820;10.534;2023-04-01T03:19:33;4.60;83.00
21734;DHT22;11029;47.820;10.534;2023-04-01T03:22:09;4.70;83.10
21734;DHT22;11029;47.820;10.534;2023-04-01T03:24:37;4.70;83.40
21734;DHT22;11029;47.820;10.534;2023-04-01T03:27:03;4.60;83.50
21734;DHT22;11029;47.820;10.534;2023-04-01T03:29:30;4.60;83.10
21734;DHT22;11029;47.820;10.534;2023-04-01T03:31:57;4.60;83.30
21734;DHT22;11029;47.820;10.534;2023-04-01T03:34:25;4.60;83.00
21734;DHT22;11029;47.820;10.534;2023-04-01T03:36:52;4.70;81.80
21734;DHT22;11029;47.820;10.534;2023-04-01T03:39:19;4.70;81.60
21734;DHT22;11029;47.820;10.534;2023-04-01T03:41:46;4.80;81.10
21734;DHT22;11029;47.820;10.534;2023-04-01T03:44:13;4.80;81.70
21734;DHT22;11029;47.820;10.534;2023-04-01T03:46:41;4.80;81.20
21734;DHT22;11029;47.820;10.534;2023-04-01T03:49:11;4.80;80.80
21734;DHT22;11029;47.820;10.534;2023-04-01T03:51:40;4.80;80.90
21734;DHT22;11029;47.820;10.534;2023-04-01T03:54:09;4.80;79.80
21734;DHT22;11029;47.820;10.534;2023-04-01T03:56:37;4.80;80.20
21734;DHT22;11029;47.820;10.534;2023-04-01T03:59:07;4.90;79.50
21734;DHT22;11029;47.820;10.534;2023-04-01T04:01:35;4.90;79.00
21734;DHT22;11029;47.820;10.534;2023-04-01T04:04:02;4.80;79.40
21734;DHT22;11029;47.820;10.534;2023-04-01T04:06:28;4.80;79.70
21734;DHT22;11029;47.820;10.534;2023-04-01T04:08:55;4.80;79.50
21734;DHT22;11029;47.820;10.534;2023-04-01T04:11:22;4.80;79.30
21734;DHT22;11029;47.820;10.534;2023-04-01T04:13:51;4.80;79.50
21734;DHT22;11029;47.820;10.534;2023-04-01T04:16:19;4.80;79.40
21734;DHT22;11029;47.820;10.534;2023-04-01T04:18:53;4.70;79.50
21734;DHT22;11029;47.820;10.534;2023-04-01T04:21:20;4.80;79.10
21734;DHT22;11029;47.820;10.534;2023-04-01T04:23:46;4.70;78.40
21734;DHT22;11029;47.820;10.534;2023-04-01T04:26:15;4.70;78.90
21734;DHT22;11029;47.820;10.534;2023-04-01T04:28:47;4.80;77.90
21734;DHT22;11029;47.820;10.534;2023-04-01T04:31:20;4.80;77.80
21734;DHT22;11029;47.820;10.534;2023-04-01T04:33:49;4.70;77.70
21734;DHT22;11029;47.820;10.534;2023-04-01T04:36:17;4.80;77.40
21734;DHT22;11029;47.820;10.534;2023-04-01T04:38:44;4.70;78.10
21734;DHT22;11029;47.820;10.534;2023-04-01T04:41:16;4.80;77.20
21734;DHT22;11029;47.820;10.534;2023-04-01T04:43:52;4.80;77.80
21734;DHT22;11029;47.820;10.534;2023-04-01T04:46:19;4.80;77.50
21734;DHT22;11029;47.820;10.534;2023-04-01T04:48:50;4.80;76.70
21734;DHT22;11029;47.820;10.534;2023-04-01T04:51:18;4.80;77.70
21734;DHT22;11029;47.820;10.534;2023-04-01T04:53:46;4.70;77.80
21734;DHT22;11029;47.820;10.534;2023-04-01T04:56:13;4.70;77.60
21734;DHT22;11029;47.820;10.534;2023-04-01T04:58:48;4.70;78.10
21734;DHT22;11029;47.820;10.534;2023-04-01T05:01:20;4.70;77.90
21734;DHT22;11029;47.820;10.534;2023-04-01T05:03:47;4.70;77.90
21734;DHT22;11029;47.820;10.534;2023-04-01T05:06:15;4.70;77.20
21734;DHT22;11029;47.820;10.534;2023-04-01T05:08:43;4.80;77.20
21734;DHT22;11029;47.820;10.534;2023-04-01T05:11:16;4.80;76.60
21734;DHT22;11029;47.820;10.534;2023-04-01T05:13:44;4.80;75.80
21734;DHT22;11029;47.820;10.534;2023-04-01T05:16:13;4.90;75.80
21734;DHT22;11029;47.820;10.534;2023-04-01T05:18:41;4.90;75.60
21734;DHT22;11029;47.820;10.534;2023-04-01T05:21:09;4.90;75.60
21734;DHT22;11029;47.820;10.534;2023-04-01T05:23:36;4.90;75.60
21734;DHT22;11029;47.820;10.534;2023-04-01T05:26:09;5.00;74.50
21734;DHT22;11029;47.820;10.534;2023-04-01T05:28:36;5.00;75.90
21734;DHT22;11029;47.820;10.534;2023-04-01T05:31:04;4.90;76.30
21734;DHT22;11029;47.820;10.534;2023-04-01T05:33:35;4.80;76.90
21734;DHT22;11029;47.820;10.534;2023-04-01T05:36:12;4.80;76.40
21734;DHT22;11029;47.820;10.534;2023-04-01T05:38:40;4.80;75.70
21734;DHT22;11029;47.820;10.534;2023-04-01T05:41:09;4.80;76.00
21734;DHT22;11029;47.820;10.534;2023-04-01T05:43:41;4.80;75.80
21734;DHT22;11029;47.820;10.534;2023-04-01T05:46:34;4.80;75.70
21734;DHT22;11029;47.820;10.534;2023-04-01T05:49:19;4.80;76.00
21734;DHT22;11029;47.820;10.534;2023-04-01T05:51:47;4.80;76.40
21734;DHT22;11029;47.820;10.534;2023-04-01T05:54:14;4.80;76.50
21734;DHT22;11029;47.820;10.534;2023-04-01T05:56:41;4.70;75.90
21734;DHT22;11029;47.820;10.534;2023-04-01T05:59:10;4.80;75.70
21734;DHT22;11029;47.820;10.534;2023-04-01T06:01:37;4.80;75.60
21734;DHT22;11029;47.820;10.534;2023-04-01T06:04:04;4.80;75.70
21734;DHT22;11029;47.820;10.534;2023-04-01T06:06:32;4.90;75.60
21734;DHT22;11029;47.820;10.534;2023-04-01T06:09:18;5.00;74.90
21734;DHT22;11029;47.820;10.534;2023-04-01T06:15:33;5.00;76.10
21734;DHT22;11029;47.820;10.534;2023-04-01T06:32:30;5.00;77.90
21734;DHT22;11029;47.820;10.534;2023-04-01T06:38:09;5.20;77.70
21734;DHT22;11029;47.820;10.534;2023-04-01T06:47:04;5.20;76.50
21734;DHT22;11029;47.820;10.534;2023-04-01T06:52:56;5.30;76.40
21734;DHT22;11029;47.820;10.534;2023-04-01T06:55:47;5.30;76.70
21734;DHT22;11029;47.820;10.534;2023-04-01T06:58:34;5.40;76.60
21734;DHT22;11029;47.820;10.534;2023-04-01T07:01:06;5.40;76.00
21734;DHT22;11029;47.820;10.534;2023-04-01T07:03:38;5.50;75.30
21734;DHT22;11029;47.820;10.534;2023-04-01T07:06:14;5.50;75.40
21734;DHT22;11029;47.820;10.534;2023-04-01T07:08:51;5.70;75.40
21734;DHT22;11029;47.820;10.534;2023-04-01T07:11:25;5.80;75.60
21734;DHT22;11029;47.820;10.534;2023-04-01T07:14:22;5.90;74.50
21734;DHT22;11029;47.820;10.534;2023-04-01T07:19:44;5.80;73.60
21734;DHT22;11029;47.820;10.534;2023-04-01T07:22:32;5.80;74.60
21734;DHT22;11029;47.820;10.534;2023-04-01T07:25:31;5.70;73.40
21734;DHT22;11029;47.820;10.534;2023-04-01T07:28:32;5.70;73.30
21734;DHT22;11029;47.820;10.534;2023-04-01T07:34:28;5.80;73.80
21734;DHT22;11029;47.820;10.534;2023-04-01T07:37:17;5.90;73.30
21734;DHT22;11029;47.820;10.534;2023-04-01T07:42:36;5.90;73.70
21734;DHT22;11029;47.820;10.534;2023-04-01T07:51:03;6.00;71.20
21734;DHT22;11029;47.820;10.534;2023-04-01T07:53:41;6.20;71.20
21734;DHT22;11029;47.820;10.534;2023-04-01T07:56:23;6.20;71.00
21734;DHT22;11029;47.820;10.534;2023-04-01T08:04:58;6.30;69.40
21734;DHT22;11029;47.820;10.534;2023-04-01T08:08:29;6.40;70.20
21734;DHT22;11029;47.820;10.534;2023-04-01T08:17:19;6.60;69.20
21734;DHT22;11029;47.820;10.534;2023-04-01T08:20:17;6.70;68.70
21734;DHT22;11029;47.820;10.534;2023-04-01T08:22:57;6.70;68.50
21734;DHT22;11029;47.820;10.534;2023-04-01T08:25:30;6.80;68.60
21734;DHT22;11029;47.820;10.534;2023-04-01T08:31:14;7.10;68.70
21734;DHT22;11029;47.820;10.534;2023-04-01T08:33:46;7.20;67.60
21734;DHT22;11029;47.820;10.534;2023-04-01T08:38:58;7.30;65.00
21734;DHT22;11029;47.820;10.534;2023-04-01T08:44:53;7.50;65.60
21734;DHT22;11029;47.820;10.534;2023-04-01T08:55:50;7.60;63.10
21734;DHT22;11029;47.820;10.534;2023-04-01T08:58:47;7.60;64.00
21734;DHT22;11029;47.820;10.534;2023-04-01T09:01:55;7.60;64.20
21734;DHT22;11029;47.820;10.534;2023-04-01T09:05:26;7.60;63.80
21734;DHT22;11029;47.820;10.534;2023-04-01T09:17:29;7.70;63.70
21734;DHT22;11029;47.820;10.534;2023-04-01T09:20:17;7.70;63.40
21734;DHT22;11029;47.820;10.534;2023-04-01T09:23:15;7.60;63.70
21734;DHT22;11029;47.820;10.534;2023-04-01T09:29:13;7.50;64.80
21734;DHT22;11029;47.820;10.534;2023-04-01T09:40:18;7.60;64.60
21734;DHT22;11029;47.820;10.534;2023-04-01T09:43:21;7.40;66.20
21734;DHT22;11029;47.820;10.534;2023-04-01T09:49:04;7.30;67.30
21734;DHT22;11029;47.820;10.534;2023-04-01T09:52:18;7.50;67.70
21734;DHT22;11029;47.820;10.534;2023-04-01T09:58:14;7.40;70.60
21734;DHT22;11029;47.820;10.534;2023-04-01T10:07:04;7.10;72.80
21734;DHT22;11029;47.820;10.534;2023-04-01T10:10:04;7.00;74.20
21734;DHT22;11029;47.820;10.534;2023-04-01T10:12:41;7.00;72.80
21734;DHT22;11029;47.820;10.534;2023-04-01T10:15:42;6.90;74.40
21734;DHT22;11029;47.820;10.534;2023-04-01T10:18:33;6.80;73.80
21734;DHT22;11029;47.820;10.534;2023-04-01T10:24:25;6.60;75.60
21734;DHT22;11029;47.820;10.534;2023-04-01T10:27:15;6.50;74.70
21734;DHT22;11029;47.820;10.534;2023-04-01T10:30:32;6.70;75.60
21734;DHT22;11029;47.820;10.534;2023-04-01T10:33:36;6.60;75.60
21734;DHT22;11029;47.820;10.534;2023-04-01T10:36:25;6.60;77.00
21734;DHT22;11029;47.820;10.534;2023-04-01T10:39:20;6.50;76.60
21734;DHT22;11029;47.820;10.534;2023-04-01T10:45:38;6.10;76.90
21734;DHT22;11029;47.820;10.534;2023-04-01T10:51:04;5.80;78.10
21734;DHT22;11029;47.820;10.534;2023-04-01T10:56:47;5.70;79.90
21734;DHT22;11029;47.820;10.534;2023-04-01T11:02:40;5.50;80.00
21734;DHT22;11029;47.820;10.534;2023-04-01T11:17:34;5.50;82.30
21734;DHT22;11029;47.820;10.534;2023-04-01T11:20:27;5.40;81.70
21734;DHT22;11029;47.820;10.534;2023-04-01T11:23:22;5.40;82.50
21734;DHT22;11029;47.820;10.534;2023-04-01T11:26:07;5.30;82.30
21734;DHT22;11029;47.820;10.534;2023-04-01T11:29:21;5.40;83.30
21734;DHT22;11029;47.820;10.534;2023-04-01T11:32:29;5.40;82.50
21734;DHT22;11029;47.820;10.534;2023-04-01T11:40:55;5.30;82.10
21734;DHT22;11029;47.820;10.534;2023-04-01T11:44:16;5.40;82.30
21734;DHT22;11029;47.820;10.534;2023-04-01T11:47:36;5.40;81.50
21734;DHT22;11029;47.820;10.534;2023-04-01T11:53:26;5.40;80.40
21734;DHT22;11029;47.820;10.534;2023-04-01T12:13:26;5.90;79.10
21734;DHT22;11029;47.820;10.534;2023-04-01T12:16:15;5.90;80.50
21734;DHT22;11029;47.820;10.534;2023-04-01T12:18:58;5.90;79.50
21734;DHT22;11029;47.820;10.534;2023-04-01T12:24:55;6.00;81.10
21734;DHT22;11029;47.820;10.534;2023-04-01T12:30:28;6.00;80.90
21734;DHT22;11029;47.820;10.534;2023-04-01T12:47:59;6.20;79.80
21734;DHT22;11029;47.820;10.534;2023-04-01T12:50:45;6.20;79.20
21734;DHT22;11029;47.820;10.534;2023-04-01T12:58:56;6.20;79.20
21734;DHT22;11029;47.820;10.534;2023-04-01T13:18:31;6.20;80.50
21734;DHT22;11029;47.820;10.534;2023-04-01T13:27:01;6.20;79.50
21734;DHT22;11029;47.820;10.534;2023-04-01T13:29:36;6.30;80.50
21734;DHT22;11029;47.820;10.534;2023-04-01T13:32:30;6.20;80.40
21734;DHT22;11029;47.820;10.534;2023-04-01T13:35:26;6.30;81.10
21734;DHT22;11029;47.820;10.534;2023-04-01T13:43:39;6.10;80.30
21734;DHT22;11029;47.820;10.534;2023-04-01T13:46:18;6.10;80.60
21734;DHT22;11029;47.820;10.534;2023-04-01T13:49:12;6.10;80.70
21734;DHT22;11029;47.820;10.534;2023-04-01T13:55:14;6.20;82.20
21734;DHT22;11029;47.820;10.534;2023-04-01T13:57:35;6.10;81.00
21734;DHT22;11029;47.820;10.534;2023-04-01T14:00:30;6.10;80.30
21734;DHT22;11029;47.820;10.534;2023-04-01T14:03:19;6.00;80.90
21734;DHT22;11029;47.820;10.534;2023-04-01T14:05:56;6.00;80.50
21734;DHT22;11029;47.820;10.534;2023-04-01T14:11:38;6.00;82.00
21734;DHT22;11029;47.820;10.534;2023-04-01T14:14:39;6.00;81.70
21734;DHT22;11029;47.820;10.534;2023-04-01T14:17:16;6.10;81.90
21734;DHT22;11029;47.820;10.534;2023-04-01T14:22:33;6.10;81.50
21734;DHT22;11029;47.820;10.534;2023-04-01T14:25:39;6.30;81.50
21734;DHT22;11029;47.820;10.534;2023-04-01T14:28:18;6.30;81.00
21734;DHT22;11029;47.820;10.534;2023-04-01T14:36:55;6.60;80.90
21734;DHT22;11029;47.820;10.534;2023-04-01T14:39:54;6.70;80.00
21734;DHT22;11029;47.820;10.534;2023-04-01T14:42:52;6.80;78.60
21734;DHT22;11029;47.820;10.534;2023-04-01T14:47:56;6.70;78.80
21734;DHT22;11029;47.820;10.534;2023-04-01T14:50:27;6.80;79.90
21734;DHT22;11029;47.820;10.534;2023-04-01T14:55:53;6.60;80.70
21734;DHT22;11029;47.820;10.534;2023-04-01T14:58:22;6.60;79.70
21734;DHT22;11029;47.820;10.534;2023-04-01T15:00:58;6.60;79.50
21734;DHT22;11029;47.820;10.534;2023-04-01T15:06:30;6.50;81.50
21734;DHT22;11029;47.820;10.534;2023-04-01T15:09:29;6.30;81.30
21734;DHT22;11029;47.820;10.534;2023-04-01T15:12:06;6.10;80.40
21734;DHT22;11029;47.820;10.534;2023-04-01T15:15:02;6.20;80.90
21734;DHT22;11029;47.820;10.534;2023-04-01T15:20:40;6.20;78.80
21734;DHT22;11029;47.820;10.534;2023-04-01T15:28:51;6.20;78.40
21734;DHT22;11029;47.820;10.534;2023-04-01T15:37:11;6.00;77.40
21734;DHT22;11029;47.820;10.534;2023-04-01T15:43:52;6.10;76.70
21734;DHT22;11029;47.820;10.534;2023-04-01T15:46:36;6.10;77.20
21734;DHT22;11029;47.820;10.534;2023-04-01T15:55:01;6.20;78.00
21734;DHT22;11029;47.820;10.534;2023-04-01T16:00:30;6.20;78.30
21734;DHT22;11029;47.820;10.534;2023-04-01T16:03:30;6.20;78.10
21734;DHT22;11029;47.820;10.534;2023-04-01T16:19:44;6.20;79.40
21734;DHT22;11029;47.820;10.534;2023-04-01T16:22:41;6.20;80.00
21734;DHT22;11029;47.820;10.534;2023-04-01T16:25:17;6.10;79.50
21734;DHT22;11029;47.820;10.534;2023-04-01T16:27:58;6.00;79.80
21734;DHT22;11029;47.820;10.534;2023-04-01T16:30:40;6.00;79.40
21734;DHT22;11029;47.820;10.534;2023-04-01T16:36:12;5.80;80.10
21734;DHT22;11029;47.820;10.534;2023-04-01T16:38:53;5.70;79.70
21734;DHT22;11029;47.820;10.534;2023-04-01T16:41:32;5.80;78.30
21734;DHT22;11029;47.820;10.534;2023-04-01T16:44:13;5.70;78.60
21734;DHT22;11029;47.820;10.534;2023-04-01T16:46:47;5.80;78.00
21734;DHT22;11029;47.820;10.534;2023-04-01T16:49:32;5.80;77.70
21734;DHT22;11029;47.820;10.534;2023-04-01T16:54:53;5.80;78.80
21734;DHT22;11029;47.820;10.534;2023-04-01T17:00:03;5.70;79.40
21734;DHT22;11029;47.820;10.534;2023-04-01T17:02:47;5.60;79.60
21734;DHT22;11029;47.820;10.534;2023-04-01T17:05:16;5.70;80.20
21734;DHT22;11029;47.820;10.534;2023-04-01T17:08:14;5.70;79.90
21734;DHT22;11029;47.820;10.534;2023-04-01T17:10:57;5.70;80.10
21734;DHT22;11029;47.820;10.534;2023-04-01T17:16:35;5.70;80.10
21734;DHT22;11029;47.820;10.534;2023-04-01T17:22:40;5.60;81.00
21734;DHT22;11029;47.820;10.534;2023-04-01T17:28:25;5.60;81.90
21734;DHT22;11029;47.820;10.534;2023-04-01T17:33:52;5.50;82.30
21734;DHT22;11029;47.820;10.534;2023-04-01T17:44:45;5.50;83.40
21734;DHT22;11029;47.820;10.534;2023-04-01T17:47:31;5.40;83.10
21734;DHT22;11029;47.820;10.534;2023-04-01T17:58:18;5.30;81.80
21734;DHT22;11029;47.820;10.534;2023-04-01T18:04:12;5.20;81.80
21734;DHT22;11029;47.820;10.534;2023-04-01T18:07:15;5.20;81.60
21734;DHT22;11029;47.820;10.534;2023-04-01T18:27:38;5.00;82.40
21734;DHT22;11029;47.820;10.534;2023-04-01T18:30:29;5.00;82.40
21734;DHT22;11029;47.820;10.534;2023-04-01T18:33:15;5.00;82.20
21734;DHT22;11029;47.820;10.534;2023-04-01T18:35:53;4.90;82.20
21734;DHT22;11029;47.820;10.534;2023-04-01T18:41:40;4.90;82.30
21734;DHT22;11029;47.820;10.534;2023-04-01T18:44:43;4.90;82.40
21734;DHT22;11029;47.820;10.534;2023-04-01T18:47:45;4.80;82.20
21734;DHT22;11029;47.820;10.534;2023-04-01T18:53:31;4.90;82.40
21734;DHT22;11029;47.820;10.534;2023-04-01T18:56:35;4.90;82.00
21734;DHT22;11029;47.820;10.534;2023-04-01T19:02:07;4.80;82.10
21734;DHT22;11029;47.820;10.534;2023-04-01T19:07:54;4.80;82.30
21734;DHT22;11029;47.820;10.534;2023-04-01T19:16:02;4.80;81.90
21734;DHT22;11029;47.820;10.534;2023-04-01T19:18:47;4.80;82.00
21734;DHT22;11029;47.820;10.534;2023-04-01T19:27:50;4.70;82.10
21734;DHT22;11029;47.820;10.534;2023-04-01T19:35:48;4.70;82.00
21734;DHT22;11029;47.820;10.534;2023-04-01T19:38:50;4.70;82.00
21734;DHT22;11029;47.820;10.534;2023-04-01T19:41:39;4.60;81.90
21734;DHT22;11029;47.820;10.534;2023-04-01T19:45:31;4.60;82.00
21734;DHT22;11029;47.820;10.534;2023-04-01T19:51:11;4.60;81.90
21734;DHT22;11029;47.820;10.534;2023-04-01T20:01:00;4.60;82.10
21734;DHT22;11029;47.820;10.534;2023-04-01T20:03:48;4.60;81.90
21734;DHT22;11029;47.820;10.534;2023-04-01T20:12:47;4.50;81.90
21734;DHT22;11029;47.820;10.534;2023-04-01T20:15:38;4.40;82.20
21734;DHT22;11029;47.820;10.534;2023-04-01T20:18:31;4.40;82.60
21734;DHT22;11029;47.820;10.534;2023-04-01T20:24:24;4.40;82.30
21734;DHT22;11029;47.820;10.534;2023-04-01T20:27:08;4.50;82.30
21734;DHT22;11029;47.820;10.534;2023-04-01T20:36:28;4.40;82.30
21734;DHT22;11029;47.820;10.534;2023-04-01T20:46:06;4.40;82.40
21734;DHT22;11029;47.820;10.534;2023-04-01T20:52:18;4.40;82.50
21734;DHT22;11029;47.820;10.534;2023-04-01T21:03:47;4.40;82.40
21734;DHT22;11029;47.820;10.534;2023-04-01T21:19:24;4.50;81.90
21734;DHT22;11029;47.820;10.534;2023-04-01T21:35:03;4.40;82.00
21734;DHT22;11029;47.820;10.534;2023-04-01T22:01:40;4.50;81.80
21734;DHT22;11029;47.820;10.534;2023-04-01T22:08:24;4.40;82.00
21734;DHT22;11029;47.820;10.534;2023-04-01T22:14:22;4.30;82.10
21734;DHT22;11029;47.820;10.534;2023-04-01T22:17:02;4.30;82.10
21734;DHT22;11029;47.820;10.534;2023-04-01T22:20:10;4.40;81.90
21734;DHT22;11029;47.820;10.534;2023-04-01T22:28:27;4.30;81.80
21734;DHT22;11029;47.820;10.534;2023-04-01T22:31:02;4.30;81.90
21734;DHT22;11029;47.820;10.534;2023-04-01T22:33:47;4.30;81.80
21734;DHT22;11029;47.820;10.534;2023-04-01T22:36:26;4.30;81.70
21734;DHT22;11029;47.820;10.534;2023-04-01T22:41:54;4.30;81.70
21734;DHT22;11029;47.820;10.534;2023-04-01T22:45:02;4.30;81.70
21734;DHT22;11029;47.820;10.534;2023-04-01T22:50:21;4.30;81.70
21734;DHT22;11029;47.820;10.534;2023-04-01T22:52:58;4.40;81.50
21734;DHT22;11029;47.820;10.534;2023-04-01T22:55:32;4.40;81.60
21734;DHT22;11029;47.820;10.534;2023-04-01T22:58:04;4.40;81.30
21734;DHT22;11029;47.820;10.534;2023-04-01T23:00:36;4.50;81.20
21734;DHT22;11029;47.820;10.534;2023-04-01T23:05:58;4.50;81.10
21734;DHT22;11029;47.820;10.534;2023-04-01T23:11:02;4.50;80.90
21734;DHT22;11029;47.820;10.534;2023-04-01T23:13:41;4.50;80.90
21734;DHT22;11029;47.820;10.534;2023-04-01T23:16:10;4.50;80.70
21734;DHT22;11029;47.820;10.534;2023-04-01T23:18:55;4.50;80.70
21734;DHT22;11029;47.820;10.534;2023-04-01T23:21:34;4.40;80.80
21734;DHT22;11029;47.820;10.534;2023-04-01T23:24:15;4.50;80.70
21734;DHT22;11029;47.820;10.534;2023-04-01T23:26:58;4.40;80.80
21734;DHT22;11029;47.820;10.534;2023-04-01T23:29:26;4.40;81.00
21734;DHT22;11029;47.820;10.534;2023-04-01T23:31:59;4.40;80.90
21734;DHT22;11029;47.820;10.534;2023-04-01T23:37:13;4.40;80.90
21734;DHT22;11029;47.820;10.534;2023-04-01T23:39:50;4.40;80.70
21734;DHT22;11029;47.820;10.534;2023-04-01T23:42:30;4.40;80.80
21734;DHT22;11029;47.820;10.534;2023-04-01T23:45:02;4.30;80.80
21734;DHT22;11029;47.820;10.534;2023-04-01T23:47:32;4.30;81.20
21734;DHT22;11029;47.820;10.534;2023-04-01T23:50:20;4.30;81.30
21734;DHT22;11029;47.820;10.534;2023-04-01T23:53:04;4.30;81.40
21734;DHT22;11029;47.820;10.534;2023-04-01T23:55:35;4.20;81.40
21734;DHT22;11029;47.820;10.534;2023-04-01T23:58:13;4.20;81.70
